sensor_id;sensor_type;location;lat;lon;timestamp;P1;durP1;ratioP1;P2;durP2;ratioP2
32323;SDS011;25666;44.350;9.222;2022-08-04T00:00:26;4.57;;;3.13;;
32323;SDS011;25666;44.350;9.222;2022-08-04T00:10:57;4.22;;;3.88;;
32323;SDS011;25666;44.350;9.222;2022-08-04T00:13:24;4.13;;;3.72;;
32323;SDS011;25666;44.350;9.222;2022-08-04T00:15:52;5.03;;;3.20;;
32323;SDS011;25666;44.350;9.222;2022-08-04T00:18:24;5.00;;;3.85;;
32323;SDS011;25666;44.350;9.222;2022-08-04T00:20:53;4.63;;;4.00;;
32323;SDS011;25666;44.350;9.222;2022-08-04T00:23:23;3.90;;;3.47;;
32323;SDS011;25666;44.350;9.222;2022-08-04T00:25:51;4.95;;;3.67;;
32323;SDS011;25666;44.350;9.222;2022-08-04T00:28:18;16.48;;;4.57;;
32323;SDS011;25666;44.350;9.222;2022-08-04T00:30:45;5.72;;;3.85;;
32323;SDS011;25666;44.350;9.222;2022-08-04T00:33:11;5.55;;;3.40;;
32323;SDS011;25666;44.350;9.222;2022-08-04T00:35:42;11.15;;;3.83;;
32323;SDS011;25666;44.350;9.222;2022-08-04T00:38:08;3.80;;;3.50;;
32323;SDS011;25666;44.350;9.222;2022-08-04T00:40:40;7.82;;;3.60;;
32323;SDS011;25666;44.350;9.222;2022-08-04T00:43:32;4.38;;;3.47;;
32323;SDS011;25666;44.350;9.222;2022-08-04T00:46:14;6.82;;;3.40;;
32323;SDS011;25666;44.350;9.222;2022-08-04T00:51:42;5.05;;;3.60;;
32323;SDS011;25666;44.350;9.222;2022-08-04T00:54:21;3.83;;;3.53;;
32323;SDS011;25666;44.350;9.222;2022-08-04T01:00:10;5.25;;;3.38;;
32323;SDS011;25666;44.350;9.222;2022-08-04T01:16:14;3.33;;;3.10;;
32323;SDS011;25666;44.350;9.222;2022-08-04T01:29:14;3.85;;;3.45;;
32323;SDS011;25666;44.350;9.222;2022-08-04T01:31:51;3.75;;;3.22;;
32323;SDS011;25666;44.350;9.222;2022-08-04T01:34:22;3.33;;;3.03;;
32323;SDS011;25666;44.350;9.222;2022-08-04T01:36:58;4.47;;;3.00;;
32323;SDS011;25666;44.350;9.222;2022-08-04T01:39:31;3.92;;;3.15;;
32323;SDS011;25666;44.350;9.222;2022-08-04T01:42:08;9.93;;;3.38;;
32323;SDS011;25666;44.350;9.222;2022-08-04T01:44:35;8.20;;;3.30;;
32323;SDS011;25666;44.350;9.222;2022-08-04T01:47:02;4.00;;;3.60;;
32323;SDS011;25666;44.350;9.222;2022-08-04T01:49:29;7.50;;;3.50;;
32323;SDS011;25666;44.350;9.222;2022-08-04T01:51:56;4.47;;;3.30;;
32323;SDS011;25666;44.350;9.222;2022-08-04T01:54:22;4.28;;;2.90;;
32323;SDS011;25666;44.350;9.222;2022-08-04T01:56:49;4.20;;;3.10;;
32323;SDS011;25666;44.350;9.222;2022-08-04T01:59:17;6.72;;;3.40;;
32323;SDS011;25666;44.350;9.222;2022-08-04T02:01:44;7.47;;;3.50;;
32323;SDS011;25666;44.350;9.222;2022-08-04T02:04:19;4.72;;;2.78;;
32323;SDS011;25666;44.350;9.222;2022-08-04T02:11:47;3.00;;;2.80;;
32323;SDS011;25666;44.350;9.222;2022-08-04T02:14:30;4.85;;;3.65;;
32323;SDS011;25666;44.350;9.222;2022-08-04T02:20:24;7.78;;;3.10;;
32323;SDS011;25666;44.350;9.222;2022-08-04T02:22:57;3.88;;;3.35;;
32323;SDS011;25666;44.350;9.222;2022-08-04T02:25:25;5.05;;;3.25;;
32323;SDS011;25666;44.350;9.222;2022-08-04T02:33:17;6.43;;;4.25;;
32323;SDS011;25666;44.350;9.222;2022-08-04T02:35:48;6.63;;;3.83;;
32323;SDS011;25666;44.350;9.222;2022-08-04T02:41:18;5.57;;;3.47;;
32323;SDS011;25666;44.350;9.222;2022-08-04T02:43:46;3.25;;;3.05;;
32323;SDS011;25666;44.350;9.222;2022-08-04T02:46:15;3.85;;;3.40;;
32323;SDS011;25666;44.350;9.222;2022-08-04T02:48:43;7.07;;;3.20;;
32323;SDS011;25666;44.350;9.222;2022-08-04T02:51:11;3.83;;;3.50;;
32323;SDS011;25666;44.350;9.222;2022-08-04T02:53:38;5.70;;;3.47;;
32323;SDS011;25666;44.350;9.222;2022-08-04T02:56:06;4.65;;;3.92;;
32323;SDS011;25666;44.350;9.222;2022-08-04T02:58:33;5.63;;;3.47;;
32323;SDS011;25666;44.350;9.222;2022-08-04T03:01:01;5.13;;;3.58;;
32323;SDS011;25666;44.350;9.222;2022-08-04T03:14:58;5.35;;;3.30;;
32323;SDS011;25666;44.350;9.222;2022-08-04T03:23:39;4.03;;;3.30;;
32323;SDS011;25666;44.350;9.222;2022-08-04T03:56:50;4.80;;;3.50;;
32323;SDS011;25666;44.350;9.222;2022-08-04T04:02:19;5.40;;;3.97;;
32323;SDS011;25666;44.350;9.222;2022-08-04T04:13:29;5.30;;;3.80;;
32323;SDS011;25666;44.350;9.222;2022-08-04T04:16:42;7.80;;;3.95;;
32323;SDS011;25666;44.350;9.222;2022-08-04T04:27:47;4.13;;;3.63;;
32323;SDS011;25666;44.350;9.222;2022-08-04T04:42:20;8.15;;;3.85;;
32323;SDS011;25666;44.350;9.222;2022-08-04T04:45:28;4.53;;;4.13;;
32323;SDS011;25666;44.350;9.222;2022-08-04T04:48:08;8.25;;;3.50;;
32323;SDS011;25666;44.350;9.222;2022-08-04T04:56:52;4.55;;;3.00;;
32323;SDS011;25666;44.350;9.222;2022-08-04T04:59:27;7.57;;;3.83;;
32323;SDS011;25666;44.350;9.222;2022-08-04T05:07:37;8.07;;;3.60;;
32323;SDS011;25666;44.350;9.222;2022-08-04T05:15:16;5.63;;;3.97;;
32323;SDS011;25666;44.350;9.222;2022-08-04T05:17:48;5.35;;;3.83;;
32323;SDS011;25666;44.350;9.222;2022-08-04T05:20:28;8.65;;;3.65;;
32323;SDS011;25666;44.350;9.222;2022-08-04T05:23:20;7.35;;;3.42;;
32323;SDS011;25666;44.350;9.222;2022-08-04T05:25:53;8.02;;;3.72;;
32323;SDS011;25666;44.350;9.222;2022-08-04T05:28:24;13.50;;;4.05;;
32323;SDS011;25666;44.350;9.222;2022-08-04T05:31:14;8.50;;;4.32;;
32323;SDS011;25666;44.350;9.222;2022-08-04T05:33:48;7.82;;;4.72;;
32323;SDS011;25666;44.350;9.222;2022-08-04T05:36:22;6.80;;;4.30;;
32323;SDS011;25666;44.350;9.222;2022-08-04T05:38:53;7.35;;;3.67;;
32323;SDS011;25666;44.350;9.222;2022-08-04T05:41:23;5.93;;;4.32;;
32323;SDS011;25666;44.350;9.222;2022-08-04T05:43:51;8.02;;;4.10;;
32323;SDS011;25666;44.350;9.222;2022-08-04T05:46:17;8.18;;;4.22;;
32323;SDS011;25666;44.350;9.222;2022-08-04T05:48:44;4.95;;;3.55;;
32323;SDS011;25666;44.350;9.222;2022-08-04T05:51:10;7.53;;;4.13;;
32323;SDS011;25666;44.350;9.222;2022-08-04T05:53:38;7.90;;;3.95;;
32323;SDS011;25666;44.350;9.222;2022-08-04T05:56:08;5.95;;;3.47;;
32323;SDS011;25666;44.350;9.222;2022-08-04T05:58:36;5.47;;;3.63;;
32323;SDS011;25666;44.350;9.222;2022-08-04T06:01:03;15.40;;;3.72;;
32323;SDS011;25666;44.350;9.222;2022-08-04T06:03:32;18.63;;;3.38;;
32323;SDS011;25666;44.350;9.222;2022-08-04T06:05:59;7.63;;;3.45;;
32323;SDS011;25666;44.350;9.222;2022-08-04T06:08:27;7.03;;;3.92;;
32323;SDS011;25666;44.350;9.222;2022-08-04T06:10:54;9.27;;;2.92;;
32323;SDS011;25666;44.350;9.222;2022-08-04T06:13:29;8.25;;;3.60;;
32323;SDS011;25666;44.350;9.222;2022-08-04T06:15:59;8.73;;;4.18;;
32323;SDS011;25666;44.350;9.222;2022-08-04T06:18:28;4.45;;;2.90;;
32323;SDS011;25666;44.350;9.222;2022-08-04T06:20:55;8.88;;;3.72;;
32323;SDS011;25666;44.350;9.222;2022-08-04T06:23:23;3.80;;;3.40;;
32323;SDS011;25666;44.350;9.222;2022-08-04T06:25:55;8.82;;;3.95;;
32323;SDS011;25666;44.350;9.222;2022-08-04T06:28:23;15.32;;;3.92;;
32323;SDS011;25666;44.350;9.222;2022-08-04T06:30:51;6.30;;;4.03;;
32323;SDS011;25666;44.350;9.222;2022-08-04T06:33:19;10.57;;;4.30;;
32323;SDS011;25666;44.350;9.222;2022-08-04T06:35:51;7.90;;;5.15;;
32323;SDS011;25666;44.350;9.222;2022-08-04T06:38:20;14.38;;;5.35;;
32323;SDS011;25666;44.350;9.222;2022-08-04T06:40:51;19.55;;;6.30;;
32323;SDS011;25666;44.350;9.222;2022-08-04T06:43:17;7.47;;;6.15;;
32323;SDS011;25666;44.350;9.222;2022-08-04T06:45:45;10.13;;;6.30;;
32323;SDS011;25666;44.350;9.222;2022-08-04T06:48:13;9.65;;;7.50;;
32323;SDS011;25666;44.350;9.222;2022-08-04T06:50:41;8.97;;;8.10;;
32323;SDS011;25666;44.350;9.222;2022-08-04T06:53:09;9.75;;;9.05;;
32323;SDS011;25666;44.350;9.222;2022-08-04T06:55:35;11.82;;;10.32;;
32323;SDS011;25666;44.350;9.222;2022-08-04T06:58:02;15.30;;;10.98;;
32323;SDS011;25666;44.350;9.222;2022-08-04T07:00:29;12.60;;;11.50;;
32323;SDS011;25666;44.350;9.222;2022-08-04T07:02:56;12.15;;;11.35;;
32323;SDS011;25666;44.350;9.222;2022-08-04T07:05:22;11.48;;;10.68;;
32323;SDS011;25666;44.350;9.222;2022-08-04T07:07:48;12.43;;;11.38;;
32323;SDS011;25666;44.350;9.222;2022-08-04T07:10:14;11.40;;;10.52;;
32323;SDS011;25666;44.350;9.222;2022-08-04T07:12:42;11.10;;;10.30;;
32323;SDS011;25666;44.350;9.222;2022-08-04T07:15:08;10.90;;;10.10;;
32323;SDS011;25666;44.350;9.222;2022-08-04T07:17:35;10.95;;;10.25;;
32323;SDS011;25666;44.350;9.222;2022-08-04T07:20:03;10.40;;;9.80;;
32323;SDS011;25666;44.350;9.222;2022-08-04T07:22:29;9.70;;;9.02;;
32323;SDS011;25666;44.350;9.222;2022-08-04T07:24:56;10.70;;;9.70;;
32323;SDS011;25666;44.350;9.222;2022-08-04T07:27:22;9.82;;;8.98;;
32323;SDS011;25666;44.350;9.222;2022-08-04T07:29:48;10.43;;;9.20;;
32323;SDS011;25666;44.350;9.222;2022-08-04T07:32:15;8.57;;;8.18;;
32323;SDS011;25666;44.350;9.222;2022-08-04T07:34:42;9.38;;;8.77;;
32323;SDS011;25666;44.350;9.222;2022-08-04T07:37:09;9.38;;;8.38;;
32323;SDS011;25666;44.350;9.222;2022-08-04T07:39:35;7.43;;;6.55;;
32323;SDS011;25666;44.350;9.222;2022-08-04T07:42:01;7.30;;;6.82;;
32323;SDS011;25666;44.350;9.222;2022-08-04T07:44:29;8.35;;;6.22;;
32323;SDS011;25666;44.350;9.222;2022-08-04T07:46:59;8.38;;;6.30;;
32323;SDS011;25666;44.350;9.222;2022-08-04T07:49:25;19.35;;;6.10;;
32323;SDS011;25666;44.350;9.222;2022-08-04T07:51:52;8.40;;;5.72;;
32323;SDS011;25666;44.350;9.222;2022-08-04T07:54:18;9.77;;;5.43;;
32323;SDS011;25666;44.350;9.222;2022-08-04T07:56:44;5.20;;;4.90;;
32323;SDS011;25666;44.350;9.222;2022-08-04T07:59:13;5.20;;;4.90;;
32323;SDS011;25666;44.350;9.222;2022-08-04T08:01:39;4.68;;;4.38;;
32323;SDS011;25666;44.350;9.222;2022-08-04T08:04:06;8.60;;;5.28;;
32323;SDS011;25666;44.350;9.222;2022-08-04T08:06:34;6.15;;;5.10;;
32323;SDS011;25666;44.350;9.222;2022-08-04T08:09:08;4.90;;;4.40;;
32323;SDS011;25666;44.350;9.222;2022-08-04T08:11:35;5.45;;;4.85;;
32323;SDS011;25666;44.350;9.222;2022-08-04T08:14:01;11.07;;;4.70;;
32323;SDS011;25666;44.350;9.222;2022-08-04T08:16:27;4.13;;;3.83;;
32323;SDS011;25666;44.350;9.222;2022-08-04T08:18:53;4.03;;;3.65;;
32323;SDS011;25666;44.350;9.222;2022-08-04T08:21:20;3.50;;;3.20;;
32323;SDS011;25666;44.350;9.222;2022-08-04T08:23:46;4.22;;;3.38;;
32323;SDS011;25666;44.350;9.222;2022-08-04T08:26:13;3.55;;;3.25;;
32323;SDS011;25666;44.350;9.222;2022-08-04T08:28:39;3.55;;;3.22;;
32323;SDS011;25666;44.350;9.222;2022-08-04T08:31:05;4.88;;;3.80;;
32323;SDS011;25666;44.350;9.222;2022-08-04T08:33:30;7.63;;;3.65;;
32323;SDS011;25666;44.350;9.222;2022-08-04T08:36:18;3.50;;;3.20;;
32323;SDS011;25666;44.350;9.222;2022-08-04T08:38:59;3.13;;;2.92;;
32323;SDS011;25666;44.350;9.222;2022-08-04T08:49:56;3.03;;;2.80;;
32323;SDS011;25666;44.350;9.222;2022-08-04T08:57:45;3.88;;;2.92;;
32323;SDS011;25666;44.350;9.222;2022-08-04T09:06:11;4.03;;;3.08;;
32323;SDS011;25666;44.350;9.222;2022-08-04T09:11:29;6.22;;;4.50;;
32323;SDS011;25666;44.350;9.222;2022-08-04T09:14:17;3.55;;;3.20;;
32323;SDS011;25666;44.350;9.222;2022-08-04T09:16:52;5.65;;;3.10;;
32323;SDS011;25666;44.350;9.222;2022-08-04T09:24:53;3.63;;;3.20;;
32323;SDS011;25666;44.350;9.222;2022-08-04T09:27:34;3.72;;;3.38;;
32323;SDS011;25666;44.350;9.222;2022-08-04T09:30:11;4.55;;;3.45;;
32323;SDS011;25666;44.350;9.222;2022-08-04T09:32:42;5.35;;;3.53;;
32323;SDS011;25666;44.350;9.222;2022-08-04T09:35:22;4.90;;;4.50;;
32323;SDS011;25666;44.350;9.222;2022-08-04T09:47:30;7.05;;;4.07;;
32323;SDS011;25666;44.350;9.222;2022-08-04T09:50:06;3.72;;;3.40;;
32323;SDS011;25666;44.350;9.222;2022-08-04T09:53:01;5.40;;;4.07;;
32323;SDS011;25666;44.350;9.222;2022-08-04T10:00:45;4.47;;;4.07;;
32323;SDS011;25666;44.350;9.222;2022-08-04T10:03:17;7.15;;;3.72;;
32323;SDS011;25666;44.350;9.222;2022-08-04T10:11:53;5.43;;;4.03;;
32323;SDS011;25666;44.350;9.222;2022-08-04T10:22:56;5.18;;;4.45;;
32323;SDS011;25666;44.350;9.222;2022-08-04T10:25:33;6.80;;;3.75;;
32323;SDS011;25666;44.350;9.222;2022-08-04T10:28:11;4.47;;;4.18;;
32323;SDS011;25666;44.350;9.222;2022-08-04T10:30:39;4.60;;;4.20;;
32323;SDS011;25666;44.350;9.222;2022-08-04T10:33:17;4.90;;;4.18;;
32323;SDS011;25666;44.350;9.222;2022-08-04T10:35:54;5.47;;;3.45;;
32323;SDS011;25666;44.350;9.222;2022-08-04T10:46:04;4.72;;;3.42;;
32323;SDS011;25666;44.350;9.222;2022-08-04T10:48:40;5.68;;;3.70;;
32323;SDS011;25666;44.350;9.222;2022-08-04T10:51:23;11.85;;;3.75;;
32323;SDS011;25666;44.350;9.222;2022-08-04T10:54:06;3.47;;;3.17;;
32323;SDS011;25666;44.350;9.222;2022-08-04T10:56:39;6.13;;;3.40;;
32323;SDS011;25666;44.350;9.222;2022-08-04T11:01:54;4.05;;;3.58;;
32323;SDS011;25666;44.350;9.222;2022-08-04T11:04:32;4.15;;;3.47;;
32323;SDS011;25666;44.350;9.222;2022-08-04T11:07:05;5.95;;;4.15;;
32323;SDS011;25666;44.350;9.222;2022-08-04T11:09:32;5.57;;;3.95;;
32323;SDS011;25666;44.350;9.222;2022-08-04T11:12:06;6.30;;;4.28;;
32323;SDS011;25666;44.350;9.222;2022-08-04T11:17:36;5.45;;;3.00;;
32323;SDS011;25666;44.350;9.222;2022-08-04T11:30:53;4.60;;;3.90;;
32323;SDS011;25666;44.350;9.222;2022-08-04T11:36:01;3.67;;;3.38;;
32323;SDS011;25666;44.350;9.222;2022-08-04T11:38:58;7.05;;;4.45;;
32323;SDS011;25666;44.350;9.222;2022-08-04T11:44:46;8.70;;;3.83;;
32323;SDS011;25666;44.350;9.222;2022-08-04T11:50:07;5.95;;;3.22;;
32323;SDS011;25666;44.350;9.222;2022-08-04T11:52:40;4.43;;;3.88;;
32323;SDS011;25666;44.350;9.222;2022-08-04T11:55:10;4.82;;;3.72;;
32323;SDS011;25666;44.350;9.222;2022-08-04T11:57:38;4.10;;;3.70;;
32323;SDS011;25666;44.350;9.222;2022-08-04T12:00:06;4.05;;;3.72;;
32323;SDS011;25666;44.350;9.222;2022-08-04T12:05:43;4.25;;;3.45;;
32323;SDS011;25666;44.350;9.222;2022-08-04T12:14:20;5.82;;;4.35;;
32323;SDS011;25666;44.350;9.222;2022-08-04T12:16:57;5.72;;;3.65;;
32323;SDS011;25666;44.350;9.222;2022-08-04T12:19:27;6.35;;;4.43;;
32323;SDS011;25666;44.350;9.222;2022-08-04T12:22:15;5.22;;;3.63;;
32323;SDS011;25666;44.350;9.222;2022-08-04T12:27:41;5.55;;;3.75;;
32323;SDS011;25666;44.350;9.222;2022-08-04T12:30:13;3.40;;;3.10;;
32323;SDS011;25666;44.350;9.222;2022-08-04T12:32:47;5.80;;;3.97;;
32323;SDS011;25666;44.350;9.222;2022-08-04T12:35:18;9.15;;;3.92;;
32323;SDS011;25666;44.350;9.222;2022-08-04T12:43:11;8.20;;;4.05;;
32323;SDS011;25666;44.350;9.222;2022-08-04T12:45:48;9.13;;;5.30;;
32323;SDS011;25666;44.350;9.222;2022-08-04T12:48:18;4.30;;;3.83;;
32323;SDS011;25666;44.350;9.222;2022-08-04T12:50:47;8.30;;;3.63;;
32323;SDS011;25666;44.350;9.222;2022-08-04T12:53:15;8.20;;;3.90;;
32323;SDS011;25666;44.350;9.222;2022-08-04T12:55:47;6.88;;;4.20;;
32323;SDS011;25666;44.350;9.222;2022-08-04T12:58:26;5.95;;;4.18;;
32323;SDS011;25666;44.350;9.222;2022-08-04T13:00:59;4.15;;;3.80;;
32323;SDS011;25666;44.350;9.222;2022-08-04T13:03:36;4.75;;;4.20;;
32323;SDS011;25666;44.350;9.222;2022-08-04T13:06:05;4.32;;;3.97;;
32323;SDS011;25666;44.350;9.222;2022-08-04T13:08:34;4.90;;;3.47;;
32323;SDS011;25666;44.350;9.222;2022-08-04T13:11:02;4.43;;;4.03;;
32323;SDS011;25666;44.350;9.222;2022-08-04T13:13:30;6.03;;;4.50;;
32323;SDS011;25666;44.350;9.222;2022-08-04T13:15:59;4.25;;;3.70;;
32323;SDS011;25666;44.350;9.222;2022-08-04T13:18:28;4.35;;;3.95;;
32323;SDS011;25666;44.350;9.222;2022-08-04T13:20:56;11.10;;;4.63;;
32323;SDS011;25666;44.350;9.222;2022-08-04T13:23:33;4.47;;;4.07;;
32323;SDS011;25666;44.350;9.222;2022-08-04T13:26:01;4.18;;;3.78;;
32323;SDS011;25666;44.350;9.222;2022-08-04T13:28:28;4.20;;;3.80;;
32323;SDS011;25666;44.350;9.222;2022-08-04T13:30:59;4.18;;;3.88;;
32323;SDS011;25666;44.350;9.222;2022-08-04T13:33:38;4.60;;;4.20;;
32323;SDS011;25666;44.350;9.222;2022-08-04T13:36:07;4.43;;;4.05;;
32323;SDS011;25666;44.350;9.222;2022-08-04T13:38:35;4.80;;;4.50;;
32323;SDS011;25666;44.350;9.222;2022-08-04T13:41:04;6.40;;;4.40;;
32323;SDS011;25666;44.350;9.222;2022-08-04T13:43:32;8.88;;;3.88;;
32323;SDS011;25666;44.350;9.222;2022-08-04T13:46:05;4.47;;;3.63;;
32323;SDS011;25666;44.350;9.222;2022-08-04T13:48:32;4.80;;;4.00;;
32323;SDS011;25666;44.350;9.222;2022-08-04T13:51:02;11.65;;;4.72;;
32323;SDS011;25666;44.350;9.222;2022-08-04T13:53:32;6.60;;;3.40;;
32323;SDS011;25666;44.350;9.222;2022-08-04T13:56:00;3.78;;;3.47;;
32323;SDS011;25666;44.350;9.222;2022-08-04T13:58:29;8.05;;;3.80;;
32323;SDS011;25666;44.350;9.222;2022-08-04T14:00:58;4.53;;;4.10;;
32323;SDS011;25666;44.350;9.222;2022-08-04T14:03:36;4.53;;;3.50;;
32323;SDS011;25666;44.350;9.222;2022-08-04T14:06:20;4.28;;;3.55;;
32323;SDS011;25666;44.350;9.222;2022-08-04T14:11:35;4.57;;;3.83;;
32323;SDS011;25666;44.350;9.222;2022-08-04T14:17:03;3.55;;;3.00;;
32323;SDS011;25666;44.350;9.222;2022-08-04T14:22:32;3.30;;;3.10;;
32323;SDS011;25666;44.350;9.222;2022-08-04T14:30:21;8.50;;;3.63;;
32323;SDS011;25666;44.350;9.222;2022-08-04T14:32:55;6.43;;;3.92;;
32323;SDS011;25666;44.350;9.222;2022-08-04T14:35:24;7.32;;;4.00;;
32323;SDS011;25666;44.350;9.222;2022-08-04T14:37:54;4.10;;;3.80;;
32323;SDS011;25666;44.350;9.222;2022-08-04T14:40:28;4.47;;;3.65;;
32323;SDS011;25666;44.350;9.222;2022-08-04T14:42:56;4.13;;;3.67;;
32323;SDS011;25666;44.350;9.222;2022-08-04T14:45:35;5.68;;;4.53;;
32323;SDS011;25666;44.350;9.222;2022-08-04T14:48:14;5.90;;;3.75;;
32323;SDS011;25666;44.350;9.222;2022-08-04T14:50:48;7.30;;;3.38;;
32323;SDS011;25666;44.350;9.222;2022-08-04T14:53:22;4.50;;;3.90;;
32323;SDS011;25666;44.350;9.222;2022-08-04T14:55:54;4.43;;;4.03;;
32323;SDS011;25666;44.350;9.222;2022-08-04T14:58:25;3.60;;;3.30;;
32323;SDS011;25666;44.350;9.222;2022-08-04T15:00:54;3.83;;;3.33;;
32323;SDS011;25666;44.350;9.222;2022-08-04T15:03:22;6.88;;;3.88;;
32323;SDS011;25666;44.350;9.222;2022-08-04T15:05:49;12.43;;;4.10;;
32323;SDS011;25666;44.350;9.222;2022-08-04T15:08:16;7.97;;;3.65;;
32323;SDS011;25666;44.350;9.222;2022-08-04T15:10:42;4.32;;;3.92;;
32323;SDS011;25666;44.350;9.222;2022-08-04T15:13:08;4.70;;;3.85;;
32323;SDS011;25666;44.350;9.222;2022-08-04T15:15:36;4.53;;;3.38;;
32323;SDS011;25666;44.350;9.222;2022-08-04T15:18:06;5.35;;;3.65;;
32323;SDS011;25666;44.350;9.222;2022-08-04T15:20:33;7.25;;;4.15;;
32323;SDS011;25666;44.350;9.222;2022-08-04T15:23:00;10.32;;;4.35;;
32323;SDS011;25666;44.350;9.222;2022-08-04T15:25:26;4.72;;;3.75;;
32323;SDS011;25666;44.350;9.222;2022-08-04T15:27:56;5.50;;;4.00;;
32323;SDS011;25666;44.350;9.222;2022-08-04T15:30:23;6.35;;;4.20;;
32323;SDS011;25666;44.350;9.222;2022-08-04T15:32:50;6.50;;;3.85;;
32323;SDS011;25666;44.350;9.222;2022-08-04T15:35:18;7.18;;;4.35;;
32323;SDS011;25666;44.350;9.222;2022-08-04T15:46:02;5.47;;;4.03;;
32323;SDS011;25666;44.350;9.222;2022-08-04T15:48:32;12.27;;;4.40;;
32323;SDS011;25666;44.350;9.222;2022-08-04T15:50:59;5.88;;;4.20;;
32323;SDS011;25666;44.350;9.222;2022-08-04T15:53:30;5.60;;;3.70;;
32323;SDS011;25666;44.350;9.222;2022-08-04T15:55:57;5.55;;;4.32;;
32323;SDS011;25666;44.350;9.222;2022-08-04T15:58:23;6.00;;;3.95;;
32323;SDS011;25666;44.350;9.222;2022-08-04T16:05:58;7.47;;;3.72;;
32323;SDS011;25666;44.350;9.222;2022-08-04T16:08:24;3.33;;;3.03;;
32323;SDS011;25666;44.350;9.222;2022-08-04T16:10:50;3.25;;;2.95;;
32323;SDS011;25666;44.350;9.222;2022-08-04T16:13:17;20.92;;;4.00;;
32323;SDS011;25666;44.350;9.222;2022-08-04T16:20:49;3.03;;;2.83;;
32323;SDS011;25666;44.350;9.222;2022-08-04T16:26:02;4.20;;;3.38;;
32323;SDS011;25666;44.350;9.222;2022-08-04T16:31:10;7.95;;;3.38;;
32323;SDS011;25666;44.350;9.222;2022-08-04T16:33:36;3.40;;;3.13;;
32323;SDS011;25666;44.350;9.222;2022-08-04T16:36:04;5.25;;;3.53;;
32323;SDS011;25666;44.350;9.222;2022-08-04T16:38:32;8.90;;;3.92;;
32323;SDS011;25666;44.350;9.222;2022-08-04T16:41:37;4.45;;;3.03;;
32323;SDS011;25666;44.350;9.222;2022-08-04T16:47:01;5.53;;;3.10;;
32323;SDS011;25666;44.350;9.222;2022-08-04T16:49:28;4.68;;;3.42;;
32323;SDS011;25666;44.350;9.222;2022-08-04T16:51:59;10.45;;;3.03;;
32323;SDS011;25666;44.350;9.222;2022-08-04T16:54:30;4.95;;;3.42;;
32323;SDS011;25666;44.350;9.222;2022-08-04T16:56:57;4.55;;;3.03;;
32323;SDS011;25666;44.350;9.222;2022-08-04T16:59:24;3.97;;;3.25;;
32323;SDS011;25666;44.350;9.222;2022-08-04T17:01:50;4.85;;;3.10;;
32323;SDS011;25666;44.350;9.222;2022-08-04T17:04:28;14.48;;;4.00;;
32323;SDS011;25666;44.350;9.222;2022-08-04T17:06:58;5.35;;;3.03;;
32323;SDS011;25666;44.350;9.222;2022-08-04T17:09:25;12.15;;;3.00;;
32323;SDS011;25666;44.350;9.222;2022-08-04T17:11:50;3.70;;;3.00;;
32323;SDS011;25666;44.350;9.222;2022-08-04T17:14:20;3.67;;;2.92;;
32323;SDS011;25666;44.350;9.222;2022-08-04T17:16:46;3.88;;;2.60;;
32323;SDS011;25666;44.350;9.222;2022-08-04T17:19:12;8.27;;;3.10;;
32323;SDS011;25666;44.350;9.222;2022-08-04T17:21:39;3.03;;;2.75;;
32323;SDS011;25666;44.350;9.222;2022-08-04T17:24:05;4.25;;;3.03;;
32323;SDS011;25666;44.350;9.222;2022-08-04T17:26:31;2.85;;;2.50;;
32323;SDS011;25666;44.350;9.222;2022-08-04T17:28:59;4.35;;;3.50;;
32323;SDS011;25666;44.350;9.222;2022-08-04T17:31:26;2.95;;;2.75;;
32323;SDS011;25666;44.350;9.222;2022-08-04T17:33:55;3.80;;;2.85;;
32323;SDS011;25666;44.350;9.222;2022-08-04T17:36:29;9.80;;;3.20;;
32323;SDS011;25666;44.350;9.222;2022-08-04T17:38:56;2.53;;;2.33;;
32323;SDS011;25666;44.350;9.222;2022-08-04T17:41:24;4.88;;;3.08;;
32323;SDS011;25666;44.350;9.222;2022-08-04T17:51:54;2.80;;;2.42;;
32323;SDS011;25666;44.350;9.222;2022-08-04T17:56:58;2.90;;;2.67;;
32323;SDS011;25666;44.350;9.222;2022-08-04T17:59:30;3.65;;;2.83;;
32323;SDS011;25666;44.350;9.222;2022-08-04T18:02:06;3.33;;;2.55;;
32323;SDS011;25666;44.350;9.222;2022-08-04T18:04:45;4.05;;;2.47;;
32323;SDS011;25666;44.350;9.222;2022-08-04T18:07:21;6.80;;;2.75;;
32323;SDS011;25666;44.350;9.222;2022-08-04T18:10:08;5.03;;;3.00;;
32323;SDS011;25666;44.350;9.222;2022-08-04T18:12:33;2.65;;;2.45;;
32323;SDS011;25666;44.350;9.222;2022-08-04T18:15:02;3.92;;;3.05;;
32323;SDS011;25666;44.350;9.222;2022-08-04T18:17:36;4.50;;;2.95;;
32323;SDS011;25666;44.350;9.222;2022-08-04T18:20:05;5.35;;;2.63;;
32323;SDS011;25666;44.350;9.222;2022-08-04T18:22:33;4.32;;;2.97;;
32323;SDS011;25666;44.350;9.222;2022-08-04T18:24:59;5.95;;;2.88;;
32323;SDS011;25666;44.350;9.222;2022-08-04T18:27:26;3.47;;;3.17;;
32323;SDS011;25666;44.350;9.222;2022-08-04T18:29:53;3.20;;;2.90;;
32323;SDS011;25666;44.350;9.222;2022-08-04T18:32:19;6.18;;;2.80;;
32323;SDS011;25666;44.350;9.222;2022-08-04T18:34:48;2.78;;;2.58;;
32323;SDS011;25666;44.350;9.222;2022-08-04T18:37:15;7.85;;;3.35;;
32323;SDS011;25666;44.350;9.222;2022-08-04T18:39:41;3.35;;;3.05;;
32323;SDS011;25666;44.350;9.222;2022-08-04T18:42:07;6.65;;;3.28;;
32323;SDS011;25666;44.350;9.222;2022-08-04T18:44:33;6.35;;;3.30;;
32323;SDS011;25666;44.350;9.222;2022-08-04T18:46:59;4.60;;;3.42;;
32323;SDS011;25666;44.350;9.222;2022-08-04T18:49:26;6.20;;;3.13;;
32323;SDS011;25666;44.350;9.222;2022-08-04T18:51:52;3.53;;;3.22;;
32323;SDS011;25666;44.350;9.222;2022-08-04T18:54:19;4.28;;;3.38;;
32323;SDS011;25666;44.350;9.222;2022-08-04T18:56:45;8.43;;;4.75;;
32323;SDS011;25666;44.350;9.222;2022-08-04T18:59:10;9.88;;;3.83;;
32323;SDS011;25666;44.350;9.222;2022-08-04T19:01:36;3.65;;;3.35;;
32323;SDS011;25666;44.350;9.222;2022-08-04T19:04:03;4.65;;;3.83;;
32323;SDS011;25666;44.350;9.222;2022-08-04T19:06:28;6.55;;;3.25;;
32323;SDS011;25666;44.350;9.222;2022-08-04T19:08:55;9.70;;;4.40;;
32323;SDS011;25666;44.350;9.222;2022-08-04T19:11:20;4.05;;;3.20;;
32323;SDS011;25666;44.350;9.222;2022-08-04T19:13:46;8.40;;;4.43;;
32323;SDS011;25666;44.350;9.222;2022-08-04T19:16:12;8.15;;;2.90;;
32323;SDS011;25666;44.350;9.222;2022-08-04T19:18:38;13.90;;;3.85;;
32323;SDS011;25666;44.350;9.222;2022-08-04T19:21:03;5.57;;;2.92;;
32323;SDS011;25666;44.350;9.222;2022-08-04T19:23:29;7.53;;;3.50;;
32323;SDS011;25666;44.350;9.222;2022-08-04T19:25:56;6.28;;;4.25;;
32323;SDS011;25666;44.350;9.222;2022-08-04T19:28:23;7.05;;;3.78;;
32323;SDS011;25666;44.350;9.222;2022-08-04T19:30:49;4.78;;;3.67;;
32323;SDS011;25666;44.350;9.222;2022-08-04T19:33:15;4.93;;;3.47;;
32323;SDS011;25666;44.350;9.222;2022-08-04T19:35:40;6.53;;;3.65;;
32323;SDS011;25666;44.350;9.222;2022-08-04T19:38:09;5.78;;;3.83;;
32323;SDS011;25666;44.350;9.222;2022-08-04T19:40:38;4.07;;;3.53;;
32323;SDS011;25666;44.350;9.222;2022-08-04T19:43:05;6.72;;;3.70;;
32323;SDS011;25666;44.350;9.222;2022-08-04T19:45:31;10.23;;;4.00;;
32323;SDS011;25666;44.350;9.222;2022-08-04T19:47:57;16.35;;;4.90;;
32323;SDS011;25666;44.350;9.222;2022-08-04T19:50:23;7.93;;;4.28;;
32323;SDS011;25666;44.350;9.222;2022-08-04T19:52:49;12.52;;;4.05;;
32323;SDS011;25666;44.350;9.222;2022-08-04T19:55:16;4.82;;;3.88;;
32323;SDS011;25666;44.350;9.222;2022-08-04T19:57:41;4.95;;;3.60;;
32323;SDS011;25666;44.350;9.222;2022-08-04T20:00:10;7.72;;;4.00;;
32323;SDS011;25666;44.350;9.222;2022-08-04T20:02:38;4.10;;;3.50;;
32323;SDS011;25666;44.350;9.222;2022-08-04T20:05:04;7.13;;;4.13;;
32323;SDS011;25666;44.350;9.222;2022-08-04T20:07:31;8.98;;;4.78;;
32323;SDS011;25666;44.350;9.222;2022-08-04T20:09:57;6.07;;;3.67;;
32323;SDS011;25666;44.350;9.222;2022-08-04T20:12:22;6.95;;;3.65;;
32323;SDS011;25666;44.350;9.222;2022-08-04T20:14:48;12.68;;;4.00;;